Terminal Aerodrome Forecast
Issued by NWS

Home | Current Version | Previous Version | Text Only | Print | Product List | Glossary On
Versions: 1 2 3 4 5 6 7 8 9 10 11 12 13 14 15 16 17 18 19
000
FTUS46 KLOX 211100
TAFPRB
TAF
KPRB 211125Z 2112/2212 VRB03KT P6SM SCT040
     FM211300 VRB03KT P6SM BKN030
     FM211600 VRB03KT P6SM SKC
     FM212000 34009KT P6SM SKC
     FM220000 08008KT P6SM SKC
     FM220500 VRB03KT P6SM SKC=

USA.gov is the U.S. government's official web portal to all federal, state and local government web resources and services.